RYR15R EGSS-EDDH
Flight info
| Callsign | RYR15R |
|---|---|
| Flight time | 0h 59m |
| Altitude | 35000 |
| Route | CLN P44 SOMVA DCT MAVAS DCT VALAM DCT GASTU DCT OSTOR T904 RIBSO RIBSO7A |
| Aircraft | B738/M-SDE2E3FGHIRWXY/LB1 |
Departure
| Time | 2026-05-05 11:51 |
|---|---|
| Airport | London Stansted Airport (EGSS) |
Arrival
| Time | 2026-05-05 12:51 |
|---|---|
| Airport | Hamburg Helmut Schmidt Airport (EDDH) |
| Time | Latitude | Longitude | Altitude | Speed | Heading |
|---|---|---|---|---|---|
| 2026-05-05 11:23 | 51.88679 | 0.25214 | 345 ft | 0 kts | 223° |
| 2026-05-05 11:38 | 51.88684 | 0.25222 | 343 ft | 4 kts | 224° |
| 2026-05-05 11:38 | 51.88702 | 0.25254 | 350 ft | 4 kts | 232° |
| 2026-05-05 11:38 | 51.88717 | 0.25290 | 354 ft | 4 kts | 246° |
| 2026-05-05 11:38 | 51.88723 | 0.25330 | 354 ft | 4 kts | 279° |
| 2026-05-05 11:39 | 51.88718 | 0.25351 | 351 ft | 0 kts | 313° |
| 2026-05-05 11:41 | 51.88725 | 0.25340 | 354 ft | 4 kts | 313° |
| 2026-05-05 11:42 | 51.88746 | 0.25303 | 352 ft | 5 kts | 313° |
| 2026-05-05 11:42 | 51.88772 | 0.25258 | 345 ft | 8 kts | 313° |
| 2026-05-05 11:42 | 51.88814 | 0.25184 | 350 ft | 10 kts | 313° |
| 2026-05-05 11:42 | 51.88874 | 0.25080 | 347 ft | 9 kts | 313° |
| 2026-05-05 11:43 | 51.88908 | 0.25020 | 343 ft | 1 kts | 313° |
| 2026-05-05 11:43 | 51.88913 | 0.25011 | 343 ft | 1 kts | 313° |
| 2026-05-05 11:43 | 51.88915 | 0.25007 | 343 ft | 0 kts | 313° |
| 2026-05-05 11:43 | 51.88933 | 0.24975 | 331 ft | 12 kts | 311° |
| 2026-05-05 11:44 | 51.88932 | 0.24900 | 344 ft | 6 kts | 219° |
| 2026-05-05 11:44 | 51.88897 | 0.24853 | 344 ft | 10 kts | 219° |
| 2026-05-05 11:44 | 51.88838 | 0.24766 | 347 ft | 13 kts | 225° |
| 2026-05-05 11:44 | 51.88755 | 0.24633 | 347 ft | 21 kts | 223° |
| 2026-05-05 11:45 | 51.88634 | 0.24456 | 345 ft | 24 kts | 222° |
| 2026-05-05 11:45 | 51.88515 | 0.24283 | 345 ft | 23 kts | 223° |
| 2026-05-05 11:45 | 51.88401 | 0.24110 | 338 ft | 22 kts | 223° |
| 2026-05-05 11:45 | 51.88291 | 0.23943 | 339 ft | 21 kts | 223° |
| 2026-05-05 11:46 | 51.88184 | 0.23782 | 335 ft | 21 kts | 222° |
| 2026-05-05 11:46 | 51.88079 | 0.23627 | 335 ft | 20 kts | 222° |
| 2026-05-05 11:46 | 51.87978 | 0.23478 | 336 ft | 19 kts | 222° |
| 2026-05-05 11:46 | 51.87880 | 0.23332 | 332 ft | 19 kts | 222° |
| 2026-05-05 11:47 | 51.87785 | 0.23191 | 336 ft | 18 kts | 223° |
| 2026-05-05 11:47 | 51.87733 | 0.23037 | 336 ft | 13 kts | 285° |
| 2026-05-05 11:47 | 51.87778 | 0.22913 | 336 ft | 13 kts | 275° |
| 2026-05-05 11:47 | 51.87725 | 0.22803 | 334 ft | 12 kts | 224° |
| 2026-05-05 11:48 | 51.87645 | 0.22684 | 332 ft | 8 kts | 221° |
| 2026-05-05 11:48 | 51.87582 | 0.22589 | 331 ft | 17 kts | 223° |
| 2026-05-05 11:48 | 51.87484 | 0.22442 | 333 ft | 20 kts | 222° |
| 2026-05-05 11:49 | 51.87402 | 0.22278 | 329 ft | 15 kts | 258° |
| 2026-05-05 11:49 | 51.87418 | 0.22181 | 331 ft | 7 kts | 304° |
| 2026-05-05 11:49 | 51.87435 | 0.22148 | 333 ft | 1 kts | 311° |
| 2026-05-05 11:49 | 51.87436 | 0.22147 | 333 ft | 0 kts | 311° |
| 2026-05-05 11:50 | 51.87450 | 0.22120 | 331 ft | 11 kts | 311° |
| 2026-05-05 11:50 | 51.87535 | 0.22036 | 327 ft | 20 kts | 20° |
| 2026-05-05 11:50 | 51.87696 | 0.22273 | 331 ft | 58 kts | 42° |
| 2026-05-05 11:50 | 51.88183 | 0.23004 | 330 ft | 131 kts | 43° |
| 2026-05-05 11:51 | 51.88996 | 0.24200 | 545 ft | 174 kts | 42° |
| 2026-05-05 11:51 | 51.89915 | 0.25439 | 1704 ft | 168 kts | 39° |
| 2026-05-05 11:51 | 51.90758 | 0.26723 | 2759 ft | 170 kts | 47° |
| 2026-05-05 11:51 | 51.91437 | 0.28485 | 3207 ft | 200 kts | 68° |
| 2026-05-05 11:52 | 51.91682 | 0.30847 | 3522 ft | 226 kts | 94° |
| 2026-05-05 11:52 | 51.91208 | 0.33352 | 4007 ft | 246 kts | 113° |
| 2026-05-05 11:52 | 51.90432 | 0.35893 | 3977 ft | 249 kts | 114° |
| 2026-05-05 11:52 | 51.89693 | 0.38356 | 3990 ft | 238 kts | 113° |
| 2026-05-05 11:53 | 51.88992 | 0.40739 | 4010 ft | 231 kts | 114° |
| 2026-05-05 11:53 | 51.88290 | 0.43093 | 4071 ft | 237 kts | 113° |
| 2026-05-05 11:53 | 51.87556 | 0.45573 | 4398 ft | 255 kts | 113° |
| 2026-05-05 11:53 | 51.86785 | 0.48187 | 5057 ft | 260 kts | 114° |
| 2026-05-05 11:54 | 51.85994 | 0.50873 | 5739 ft | 268 kts | 113° |
| 2026-05-05 11:54 | 51.85190 | 0.53603 | 6621 ft | 271 kts | 114° |
| 2026-05-05 11:54 | 51.84372 | 0.56383 | 7408 ft | 277 kts | 114° |
| 2026-05-05 11:54 | 51.83568 | 0.59238 | 8216 ft | 281 kts | 106° |
| 2026-05-05 11:55 | 51.83391 | 0.62376 | 9030 ft | 283 kts | 87° |
| 2026-05-05 11:55 | 51.83409 | 0.65589 | 9816 ft | 289 kts | 90° |
| 2026-05-05 11:55 | 51.83341 | 0.68866 | 10559 ft | 293 kts | 92° |
| 2026-05-05 11:55 | 51.83237 | 0.72157 | 11364 ft | 295 kts | 90° |
| 2026-05-05 11:56 | 51.83600 | 0.75404 | 12106 ft | 297 kts | 68° |
| 2026-05-05 11:56 | 51.84397 | 0.78509 | 12882 ft | 300 kts | 66° |
| 2026-05-05 11:56 | 51.85225 | 0.81637 | 13654 ft | 304 kts | 66° |
| 2026-05-05 11:56 | 51.85783 | 0.83734 | 14113 ft | 306 kts | 66° |
| 2026-05-05 11:57 | 51.86651 | 0.86974 | 14461 ft | 324 kts | 66° |
| 2026-05-05 11:57 | 51.87578 | 0.90419 | 14694 ft | 343 kts | 66° |
| 2026-05-05 11:57 | 51.88546 | 0.94004 | 15251 ft | 350 kts | 66° |
| 2026-05-05 11:57 | 51.89851 | 0.98820 | 16181 ft | 354 kts | 66° |
| 2026-05-05 11:58 | 51.90523 | 1.01291 | 16660 ft | 356 kts | 66° |
| 2026-05-05 11:58 | 51.91527 | 1.04974 | 17327 ft | 360 kts | 66° |
| 2026-05-05 11:58 | 51.92548 | 1.08705 | 17980 ft | 364 kts | 66° |
| 2026-05-05 11:58 | 51.93568 | 1.12425 | 18574 ft | 368 kts | 66° |
| 2026-05-05 11:59 | 51.94629 | 1.16275 | 19154 ft | 372 kts | 66° |
| 2026-05-05 11:59 | 51.95695 | 1.20130 | 19707 ft | 376 kts | 66° |
| 2026-05-05 11:59 | 51.96776 | 1.24021 | 20241 ft | 381 kts | 66° |
| 2026-05-05 11:59 | 51.97875 | 1.27954 | 20807 ft | 384 kts | 66° |
| 2026-05-05 12:00 | 51.98974 | 1.31873 | 21327 ft | 389 kts | 66° |
| 2026-05-05 12:00 | 52.00107 | 1.35902 | 21830 ft | 393 kts | 66° |
| 2026-05-05 12:00 | 52.01247 | 1.39943 | 22473 ft | 395 kts | 66° |
| 2026-05-05 12:00 | 52.02403 | 1.44044 | 22759 ft | 406 kts | 66° |
| 2026-05-05 12:01 | 52.03598 | 1.48286 | 22952 ft | 418 kts | 66° |
| 2026-05-05 12:01 | 52.04813 | 1.52607 | 23312 ft | 425 kts | 66° |
| 2026-05-05 12:01 | 52.06047 | 1.57000 | 23742 ft | 428 kts | 66° |
| 2026-05-05 12:01 | 52.07286 | 1.61410 | 24177 ft | 430 kts | 66° |
| 2026-05-05 12:02 | 52.08536 | 1.65853 | 24569 ft | 434 kts | 66° |
| 2026-05-05 12:02 | 52.09792 | 1.70316 | 24957 ft | 436 kts | 66° |
| 2026-05-05 12:02 | 52.11061 | 1.74815 | 25355 ft | 439 kts | 66° |
| 2026-05-05 12:02 | 52.12348 | 1.79366 | 25728 ft | 443 kts | 66° |
| 2026-05-05 12:03 | 52.13640 | 1.83926 | 26100 ft | 446 kts | 66° |
| 2026-05-05 12:03 | 52.14946 | 1.88526 | 26543 ft | 446 kts | 66° |
| 2026-05-05 12:03 | 52.16250 | 1.93099 | 27066 ft | 445 kts | 66° |
| 2026-05-05 12:03 | 52.17555 | 1.97658 | 27622 ft | 443 kts | 67° |
| 2026-05-05 12:04 | 52.18738 | 2.02341 | 27771 ft | 451 kts | 72° |
| 2026-05-05 12:04 | 52.19726 | 2.07231 | 27861 ft | 458 kts | 75° |
| 2026-05-05 12:04 | 52.20646 | 2.12235 | 28107 ft | 463 kts | 76° |
| 2026-05-05 12:04 | 52.21553 | 2.17211 | 28476 ft | 464 kts | 75° |
| 2026-05-05 12:05 | 52.22495 | 2.22257 | 28847 ft | 466 kts | 75° |
| 2026-05-05 12:05 | 52.23466 | 2.27329 | 28994 ft | 471 kts | 75° |
| 2026-05-05 12:05 | 52.25467 | 2.37557 | 28976 ft | 472 kts | 74° |
| 2026-05-05 12:06 | 52.27465 | 2.47733 | 29076 ft | 472 kts | 74° |
| 2026-05-05 12:06 | 52.28463 | 2.52857 | 29428 ft | 473 kts | 74° |
| 2026-05-05 12:06 | 52.29458 | 2.57975 | 29792 ft | 474 kts | 75° |
| 2026-05-05 12:07 | 52.30457 | 2.63134 | 30088 ft | 476 kts | 75° |
| 2026-05-05 12:07 | 52.31436 | 2.68317 | 30382 ft | 477 kts | 75° |
| 2026-05-05 12:07 | 52.32365 | 2.73511 | 30772 ft | 475 kts | 76° |
| 2026-05-05 12:07 | 52.33269 | 2.78685 | 31191 ft | 472 kts | 76° |
| 2026-05-05 12:08 | 52.34166 | 2.83843 | 31576 ft | 471 kts | 76° |
| 2026-05-05 12:08 | 52.35065 | 2.88998 | 31905 ft | 471 kts | 76° |
| 2026-05-05 12:08 | 52.35964 | 2.94139 | 32223 ft | 471 kts | 76° |
| 2026-05-05 12:08 | 52.36864 | 2.99278 | 32569 ft | 470 kts | 76° |
| 2026-05-05 12:09 | 52.37764 | 3.04420 | 32941 ft | 468 kts | 76° |
| 2026-05-05 12:09 | 52.38647 | 3.09473 | 33298 ft | 467 kts | 76° |
| 2026-05-05 12:09 | 52.39538 | 3.14586 | 33619 ft | 466 kts | 75° |
| 2026-05-05 12:09 | 52.40644 | 3.19570 | 33895 ft | 468 kts | 66° |
| 2026-05-05 12:10 | 52.42039 | 3.24386 | 34188 ft | 467 kts | 65° |
| 2026-05-05 12:10 | 52.43480 | 3.29150 | 34425 ft | 467 kts | 64° |
| 2026-05-05 12:10 | 52.44936 | 3.33913 | 34620 ft | 468 kts | 64° |
| 2026-05-05 12:10 | 52.46390 | 3.38692 | 34843 ft | 468 kts | 64° |
| 2026-05-05 12:11 | 52.47833 | 3.43485 | 34991 ft | 470 kts | 65° |
| 2026-05-05 12:11 | 52.49275 | 3.48321 | 34975 ft | 472 kts | 65° |
| 2026-05-05 12:11 | 52.52119 | 3.57969 | 34972 ft | 468 kts | 65° |
| 2026-05-05 12:12 | 52.54935 | 3.67593 | 34970 ft | 465 kts | 65° |
| 2026-05-05 12:12 | 52.57727 | 3.77177 | 34975 ft | 464 kts | 65° |
| 2026-05-05 12:13 | 52.60508 | 3.86756 | 34972 ft | 464 kts | 65° |
| 2026-05-05 12:13 | 52.63266 | 3.96295 | 34974 ft | 465 kts | 66° |
| 2026-05-05 12:14 | 52.66045 | 4.05942 | 34972 ft | 468 kts | 66° |
| 2026-05-05 12:14 | 52.68832 | 4.15657 | 34970 ft | 470 kts | 66° |
| 2026-05-05 12:15 | 52.71627 | 4.25439 | 34970 ft | 472 kts | 66° |
| 2026-05-05 12:15 | 52.74426 | 4.35277 | 34969 ft | 475 kts | 66° |
| 2026-05-05 12:16 | 52.77227 | 4.45163 | 34963 ft | 476 kts | 66° |
| 2026-05-05 12:16 | 52.80027 | 4.55085 | 34967 ft | 477 kts | 66° |
| 2026-05-05 12:17 | 52.82820 | 4.65030 | 34966 ft | 477 kts | 66° |
| 2026-05-05 12:17 | 52.85588 | 4.74925 | 34970 ft | 477 kts | 66° |
| 2026-05-05 12:18 | 52.88365 | 4.84895 | 34963 ft | 476 kts | 66° |
| 2026-05-05 12:18 | 52.91132 | 4.94872 | 34965 ft | 476 kts | 66° |
| 2026-05-05 12:19 | 52.93888 | 5.04851 | 34968 ft | 475 kts | 66° |
| 2026-05-05 12:19 | 52.96631 | 5.14828 | 34963 ft | 475 kts | 66° |
| 2026-05-05 12:20 | 52.99343 | 5.24734 | 34961 ft | 474 kts | 67° |
| 2026-05-05 12:20 | 53.02066 | 5.34719 | 34960 ft | 474 kts | 67° |
| 2026-05-05 12:21 | 53.04719 | 5.44758 | 34960 ft | 474 kts | 69° |
| 2026-05-05 12:21 | 53.07175 | 5.54953 | 34962 ft | 475 kts | 70° |
| 2026-05-05 12:22 | 53.09600 | 5.65191 | 34964 ft | 476 kts | 70° |
| 2026-05-05 12:22 | 53.12046 | 5.75450 | 34965 ft | 477 kts | 69° |
| 2026-05-05 12:23 | 53.14489 | 5.85661 | 34968 ft | 478 kts | 69° |
| 2026-05-05 12:23 | 53.16950 | 5.95982 | 34964 ft | 479 kts | 69° |
| 2026-05-05 12:24 | 53.19406 | 6.06333 | 34964 ft | 480 kts | 70° |
| 2026-05-05 12:24 | 53.21857 | 6.16715 | 34964 ft | 481 kts | 70° |
| 2026-05-05 12:25 | 53.24305 | 6.27137 | 34960 ft | 482 kts | 70° |
| 2026-05-05 12:25 | 53.26729 | 6.37507 | 34967 ft | 482 kts | 70° |
| 2026-05-05 12:26 | 53.29157 | 6.47949 | 34965 ft | 482 kts | 70° |
| 2026-05-05 12:26 | 53.31579 | 6.58411 | 34966 ft | 483 kts | 70° |
| 2026-05-05 12:27 | 53.33994 | 6.68895 | 34967 ft | 483 kts | 70° |
| 2026-05-05 12:27 | 53.35201 | 6.74155 | 34683 ft | 488 kts | 70° |
| 2026-05-05 12:27 | 53.36420 | 6.79483 | 34099 ft | 489 kts | 70° |
| 2026-05-05 12:28 | 53.37632 | 6.84790 | 33554 ft | 486 kts | 70° |
| 2026-05-05 12:28 | 53.38832 | 6.90061 | 33088 ft | 482 kts | 70° |
| 2026-05-05 12:28 | 53.40020 | 6.95289 | 32635 ft | 477 kts | 70° |
| 2026-05-05 12:28 | 53.41193 | 7.00461 | 32197 ft | 473 kts | 70° |
| 2026-05-05 12:29 | 53.42354 | 7.05596 | 31769 ft | 469 kts | 70° |
| 2026-05-05 12:29 | 53.43502 | 7.10690 | 31323 ft | 465 kts | 70° |
| 2026-05-05 12:29 | 53.44641 | 7.15750 | 30894 ft | 462 kts | 70° |
| 2026-05-05 12:29 | 53.45767 | 7.20772 | 30472 ft | 459 kts | 70° |
| 2026-05-05 12:30 | 53.46885 | 7.25766 | 30052 ft | 456 kts | 69° |
| 2026-05-05 12:30 | 53.47994 | 7.30728 | 29565 ft | 452 kts | 69° |
| 2026-05-05 12:30 | 53.49091 | 7.35650 | 29106 ft | 448 kts | 70° |
| 2026-05-05 12:30 | 53.50177 | 7.40535 | 28666 ft | 444 kts | 70° |
| 2026-05-05 12:31 | 53.51252 | 7.45382 | 28209 ft | 440 kts | 70° |
| 2026-05-05 12:31 | 53.52313 | 7.50179 | 27771 ft | 437 kts | 70° |
| 2026-05-05 12:31 | 53.53353 | 7.54889 | 27356 ft | 433 kts | 70° |
| 2026-05-05 12:31 | 53.54396 | 7.59623 | 26930 ft | 430 kts | 70° |
| 2026-05-05 12:32 | 53.55427 | 7.64318 | 26514 ft | 426 kts | 70° |
| 2026-05-05 12:32 | 53.56451 | 7.68989 | 26099 ft | 423 kts | 70° |
| 2026-05-05 12:32 | 53.57466 | 7.73624 | 25688 ft | 421 kts | 70° |
| 2026-05-05 12:32 | 53.58472 | 7.78234 | 25281 ft | 418 kts | 70° |
| 2026-05-05 12:33 | 53.59470 | 7.82819 | 24873 ft | 416 kts | 70° |
| 2026-05-05 12:33 | 53.60459 | 7.87370 | 24462 ft | 413 kts | 70° |
| 2026-05-05 12:33 | 53.61444 | 7.91905 | 24062 ft | 411 kts | 70° |
| 2026-05-05 12:33 | 53.62421 | 7.96423 | 23649 ft | 409 kts | 70° |
| 2026-05-05 12:34 | 53.63393 | 8.00924 | 23186 ft | 408 kts | 70° |
| 2026-05-05 12:34 | 53.64308 | 8.05437 | 22750 ft | 405 kts | 71° |
| 2026-05-05 12:34 | 53.65171 | 8.09944 | 22358 ft | 402 kts | 72° |
| 2026-05-05 12:34 | 53.66009 | 8.14421 | 21943 ft | 399 kts | 72° |
| 2026-05-05 12:35 | 53.66842 | 8.18880 | 21525 ft | 397 kts | 72° |
| 2026-05-05 12:35 | 53.67673 | 8.23313 | 21117 ft | 395 kts | 71° |
| 2026-05-05 12:35 | 53.68498 | 8.27701 | 20721 ft | 392 kts | 71° |
| 2026-05-05 12:35 | 53.69322 | 8.32071 | 20329 ft | 390 kts | 71° |
| 2026-05-05 12:36 | 53.70144 | 8.36435 | 19933 ft | 388 kts | 71° |
| 2026-05-05 12:36 | 53.70958 | 8.40758 | 19547 ft | 386 kts | 71° |
| 2026-05-05 12:36 | 53.71768 | 8.45067 | 19155 ft | 384 kts | 71° |
| 2026-05-05 12:36 | 53.72562 | 8.49305 | 18783 ft | 382 kts | 71° |
| 2026-05-05 12:37 | 53.73349 | 8.53588 | 18401 ft | 381 kts | 75° |
| 2026-05-05 12:37 | 53.73491 | 8.58027 | 17941 ft | 380 kts | 102° |
| 2026-05-05 12:37 | 53.72552 | 8.62109 | 17600 ft | 371 kts | 124° |
| 2026-05-05 12:37 | 53.71258 | 8.65843 | 17256 ft | 367 kts | 121° |
| 2026-05-05 12:38 | 53.70085 | 8.69670 | 16846 ft | 366 kts | 118° |
| 2026-05-05 12:38 | 53.68967 | 8.73527 | 16471 ft | 364 kts | 118° |
| 2026-05-05 12:38 | 53.67877 | 8.77350 | 16115 ft | 358 kts | 117° |
| 2026-05-05 12:38 | 53.66802 | 8.81125 | 15657 ft | 357 kts | 117° |
| 2026-05-05 12:39 | 53.65723 | 8.84895 | 15297 ft | 355 kts | 117° |
| 2026-05-05 12:39 | 53.64666 | 8.88572 | 14978 ft | 351 kts | 117° |
| 2026-05-05 12:39 | 53.63603 | 8.92250 | 14657 ft | 348 kts | 118° |
| 2026-05-05 12:39 | 53.62544 | 8.95902 | 14365 ft | 344 kts | 118° |
| 2026-05-05 12:40 | 53.61510 | 8.99462 | 14284 ft | 333 kts | 118° |
| 2026-05-05 12:40 | 53.60503 | 9.02921 | 14077 ft | 327 kts | 118° |
| 2026-05-05 12:40 | 53.59504 | 9.06345 | 13818 ft | 323 kts | 118° |
| 2026-05-05 12:40 | 53.58518 | 9.09718 | 13554 ft | 319 kts | 118° |
| 2026-05-05 12:41 | 53.57544 | 9.13045 | 13265 ft | 316 kts | 118° |
| 2026-05-05 12:41 | 53.56569 | 9.16372 | 12762 ft | 317 kts | 118° |
| 2026-05-05 12:41 | 53.55591 | 9.19702 | 12172 ft | 318 kts | 118° |
| 2026-05-05 12:41 | 53.54607 | 9.23047 | 11586 ft | 320 kts | 118° |
| 2026-05-05 12:42 | 53.53618 | 9.26407 | 10993 ft | 320 kts | 118° |
| 2026-05-05 12:42 | 53.52631 | 9.29757 | 10415 ft | 320 kts | 118° |
| 2026-05-05 12:42 | 53.51643 | 9.33103 | 9828 ft | 319 kts | 118° |
| 2026-05-05 12:42 | 53.50992 | 9.35308 | 9544 ft | 315 kts | 118° |
| 2026-05-05 12:43 | 53.49725 | 9.39593 | 9159 ft | 301 kts | 118° |
| 2026-05-05 12:43 | 53.48813 | 9.42675 | 8973 ft | 287 kts | 118° |
| 2026-05-05 12:43 | 53.47942 | 9.45614 | 8823 ft | 274 kts | 118° |
| 2026-05-05 12:43 | 53.47103 | 9.48441 | 8453 ft | 270 kts | 118° |
| 2026-05-05 12:44 | 53.46267 | 9.51247 | 7925 ft | 267 kts | 118° |
| 2026-05-05 12:44 | 53.45708 | 9.53123 | 7569 ft | 264 kts | 118° |
| 2026-05-05 12:44 | 53.44900 | 9.55831 | 7020 ft | 261 kts | 118° |
| 2026-05-05 12:44 | 53.44223 | 9.58635 | 6402 ft | 260 kts | 99° |
| 2026-05-05 12:45 | 53.44486 | 9.61569 | 5806 ft | 255 kts | 60° |
| 2026-05-05 12:45 | 53.45550 | 9.63880 | 5302 ft | 247 kts | 47° |
| 2026-05-05 12:45 | 53.46710 | 9.65974 | 4817 ft | 241 kts | 45° |
| 2026-05-05 12:45 | 53.47838 | 9.67986 | 4462 ft | 231 kts | 47° |
| 2026-05-05 12:46 | 53.48864 | 9.69990 | 4147 ft | 222 kts | 49° |
| 2026-05-05 12:46 | 53.49829 | 9.71948 | 3844 ft | 213 kts | 50° |
| 2026-05-05 12:46 | 53.50747 | 9.73824 | 3568 ft | 205 kts | 50° |
| 2026-05-05 12:46 | 53.51640 | 9.75647 | 3304 ft | 199 kts | 50° |
| 2026-05-05 12:47 | 53.52513 | 9.77426 | 3038 ft | 195 kts | 50° |
| 2026-05-05 12:47 | 53.53367 | 9.79166 | 2778 ft | 191 kts | 50° |
| 2026-05-05 12:47 | 53.54196 | 9.80856 | 2516 ft | 184 kts | 50° |
| 2026-05-05 12:47 | 53.54997 | 9.82487 | 2268 ft | 177 kts | 50° |
| 2026-05-05 12:48 | 53.55765 | 9.84049 | 2015 ft | 168 kts | 50° |
| 2026-05-05 12:48 | 53.56482 | 9.85508 | 1795 ft | 156 kts | 50° |
| 2026-05-05 12:48 | 53.57141 | 9.86851 | 1621 ft | 140 kts | 50° |
| 2026-05-05 12:48 | 53.57749 | 9.88086 | 1417 ft | 136 kts | 50° |
| 2026-05-05 12:49 | 53.58371 | 9.89351 | 1212 ft | 143 kts | 51° |
| 2026-05-05 12:49 | 53.59009 | 9.90648 | 1014 ft | 145 kts | 51° |
| 2026-05-05 12:49 | 53.59637 | 9.91926 | 829 ft | 144 kts | 50° |
| 2026-05-05 12:49 | 53.60279 | 9.93235 | 624 ft | 144 kts | 52° |
| 2026-05-05 12:50 | 53.60925 | 9.94540 | 427 ft | 145 kts | 51° |
| 2026-05-05 12:50 | 53.61575 | 9.95856 | 214 ft | 146 kts | 52° |
| 2026-05-05 12:50 | 53.62204 | 9.97135 | 46 ft | 135 kts | 51° |
| 2026-05-05 12:50 | 53.62712 | 9.98163 | 41 ft | 85 kts | 50° |
| 2026-05-05 12:51 | 53.62974 | 9.98698 | 44 ft | 48 kts | 50° |
| 2026-05-05 12:51 | 53.63180 | 9.99115 | 46 ft | 44 kts | 50° |
| 2026-05-05 12:51 | 53.63291 | 9.99424 | 46 ft | 25 kts | 83° |
| 2026-05-05 12:51 | 53.63280 | 9.99634 | 47 ft | 9 kts | 99° |
| 2026-05-05 12:52 | 53.63278 | 9.99646 | 47 ft | 0 kts | 99° |
| 2026-05-05 12:54 | 53.63249 | 9.99737 | 47 ft | 12 kts | 142° |
| 2026-05-05 12:54 | 53.63173 | 9.99803 | 47 ft | 12 kts | 154° |
| 2026-05-05 12:55 | 53.63098 | 9.99867 | 47 ft | 12 kts | 152° |
| 2026-05-05 12:55 | 53.63027 | 9.99932 | 47 ft | 12 kts | 152° |
| 2026-05-05 12:55 | 53.62956 | 9.99991 | 47 ft | 11 kts | 153° |
| 2026-05-05 12:55 | 53.62887 | 10.00043 | 47 ft | 10 kts | 165° |
| 2026-05-05 12:56 | 53.62822 | 10.00090 | 47 ft | 10 kts | 151° |
| 2026-05-05 12:56 | 53.62761 | 10.00146 | 47 ft | 10 kts | 152° |
| 2026-05-05 12:56 | 53.62701 | 10.00197 | 47 ft | 10 kts | 153° |
| 2026-05-05 12:56 | 53.62659 | 10.00240 | 47 ft | 5 kts | 119° |
| 2026-05-05 12:57 | 53.62669 | 10.00294 | 45 ft | 5 kts | 60° |
| 2026-05-05 12:57 | 53.62682 | 10.00337 | 47 ft | 2 kts | 61° |
| 2026-05-05 12:57 | 53.62686 | 10.00349 | 47 ft | 0 kts | 62° |